PAMD

Details ICAO PAMD
Name MIDDLETON ISLAND
Region USA (Alaska)
Timezone America/Anchorage (UTC-8.0)
Plans Departing 5
Arriving 3
Stats Elevation 100 ft / 30 m (AMSL)
Location 59.451139° -146.306781°
Runways 2
Magnetic Variation 16.965° E
Sunrise 2018-05-25 12:51:51 UTC / 2018-05-25 04:51:51 Local
Sunset 2018-05-26 06:35:26 UTC / 2018-05-25 22:35:26 Local
Advertisement - Login to hide

Runways

ID Width Length Bearing (true) Bearing (mag) Surface Threshold Offset Overrun Length
01 115 ft / 35 m 3,151 ft / 960 m 34.26° 17.29° Gravel 0 ft / 0 m 0 ft / 0 m
12 125 ft / 38 m 1,497 ft / 456 m 149.75° 132.78° Gravel 0 ft / 0 m 0 ft / 0 m
19 115 ft / 35 m 3,151 ft / 960 m 214.27° 197.30° Gravel 0 ft / 0 m 0 ft / 0 m
30 125 ft / 38 m 1,497 ft / 456 m 329.75° 312.78° Gravel 0 ft / 0 m 0 ft / 0 m

Map

Weather


0- 5 10 15 20 25 30 35+ Temperature / ° C

Clouds and Precipitation
Forecast for 2018-05-25 18:00 UTC. Updated 4 hours ago

Ground ~20,000 ft ~40,000 ft Winds

METAR

PAMD 252051Z AUTO 10017KT 10SM OVC014 08/06 A2968 RMK AO2 SLP041 T00830061 52001

TAF

Not found

Frequencies

Recorded 135.72 MHz AWOS 3
Unicom 122.90 MHz CTAF
Warning: Do not use this data for real-world aviation or navigation. No guarantee of current accuracy is given.